sensor_id;sensor_type;location;lat;lon;timestamp;P1;durP1;ratioP1;P2;durP2;ratioP2
59728;SDS011;45588;51.598;5.618;2023-04-29T00:00:14;99.37;;;64.73;;
59728;SDS011;45588;51.598;5.618;2023-04-29T00:02:39;79.03;;;30.20;;
59728;SDS011;45588;51.598;5.618;2023-04-29T00:05:05;68.88;;;26.90;;
59728;SDS011;45588;51.598;5.618;2023-04-29T00:07:30;65.65;;;29.02;;
59728;SDS011;45588;51.598;5.618;2023-04-29T00:09:58;75.22;;;31.30;;
59728;SDS011;45588;51.598;5.618;2023-04-29T00:12:25;89.95;;;60.72;;
59728;SDS011;45588;51.598;5.618;2023-04-29T00:14:50;80.55;;;34.53;;
59728;SDS011;45588;51.598;5.618;2023-04-29T00:17:15;71.47;;;31.55;;
59728;SDS011;45588;51.598;5.618;2023-04-29T00:19:41;77.03;;;32.50;;
59728;SDS011;45588;51.598;5.618;2023-04-29T00:22:07;102.43;;;67.95;;
59728;SDS011;45588;51.598;5.618;2023-04-29T00:24:33;80.13;;;36.05;;
59728;SDS011;45588;51.598;5.618;2023-04-29T00:26:58;72.80;;;31.17;;
59728;SDS011;45588;51.598;5.618;2023-04-29T00:29:23;62.85;;;28.48;;
59728;SDS011;45588;51.598;5.618;2023-04-29T00:31:48;59.97;;;25.77;;
59728;SDS011;45588;51.598;5.618;2023-04-29T00:34:14;59.03;;;26.70;;
59728;SDS011;45588;51.598;5.618;2023-04-29T00:36:39;68.75;;;51.92;;
59728;SDS011;45588;51.598;5.618;2023-04-29T00:39:04;63.53;;;48.83;;
59728;SDS011;45588;51.598;5.618;2023-04-29T00:41:29;61.00;;;38.47;;
59728;SDS011;45588;51.598;5.618;2023-04-29T00:43:55;67.95;;;50.15;;
59728;SDS011;45588;51.598;5.618;2023-04-29T00:46:21;66.10;;;50.70;;
59728;SDS011;45588;51.598;5.618;2023-04-29T00:48:46;71.18;;;56.13;;
59728;SDS011;45588;51.598;5.618;2023-04-29T00:51:11;51.45;;;24.88;;
59728;SDS011;45588;51.598;5.618;2023-04-29T00:53:38;55.40;;;26.85;;
59728;SDS011;45588;51.598;5.618;2023-04-29T00:56:03;68.38;;;53.40;;
59728;SDS011;45588;51.598;5.618;2023-04-29T00:58:28;68.68;;;41.38;;
59728;SDS011;45588;51.598;5.618;2023-04-29T01:00:59;50.83;;;25.05;;
59728;SDS011;45588;51.598;5.618;2023-04-29T01:03:25;57.42;;;28.73;;
59728;SDS011;45588;51.598;5.618;2023-04-29T01:05:53;54.60;;;27.25;;
59728;SDS011;45588;51.598;5.618;2023-04-29T01:08:29;76.18;;;54.92;;
59728;SDS011;45588;51.598;5.618;2023-04-29T01:11:04;59.08;;;28.20;;
59728;SDS011;45588;51.598;5.618;2023-04-29T01:13:36;75.13;;;57.80;;
59728;SDS011;45588;51.598;5.618;2023-04-29T01:16:08;69.38;;;43.85;;
59728;SDS011;45588;51.598;5.618;2023-04-29T01:18:42;71.28;;;40.13;;
59728;SDS011;45588;51.598;5.618;2023-04-29T01:21:12;75.10;;;34.30;;
59728;SDS011;45588;51.598;5.618;2023-04-29T01:23:38;90.00;;;70.32;;
59728;SDS011;45588;51.598;5.618;2023-04-29T01:26:03;81.15;;;36.45;;
59728;SDS011;45588;51.598;5.618;2023-04-29T01:33:28;71.82;;;32.92;;
59728;SDS011;45588;51.598;5.618;2023-04-29T01:43:31;71.90;;;34.90;;
59728;SDS011;45588;51.598;5.618;2023-04-29T01:45:57;71.88;;;33.15;;
59728;SDS011;45588;51.598;5.618;2023-04-29T01:48:23;75.68;;;32.17;;
59728;SDS011;45588;51.598;5.618;2023-04-29T01:50:48;73.38;;;31.63;;
59728;SDS011;45588;51.598;5.618;2023-04-29T01:53:14;94.13;;;63.27;;
59728;SDS011;45588;51.598;5.618;2023-04-29T01:55:39;72.70;;;30.25;;
59728;SDS011;45588;51.598;5.618;2023-04-29T01:58:05;76.50;;;31.48;;
59728;SDS011;45588;51.598;5.618;2023-04-29T02:00:30;69.70;;;31.07;;
59728;SDS011;45588;51.598;5.618;2023-04-29T02:02:55;72.83;;;30.60;;
59728;SDS011;45588;51.598;5.618;2023-04-29T02:05:20;67.03;;;28.17;;
59728;SDS011;45588;51.598;5.618;2023-04-29T02:07:45;73.45;;;29.50;;
59728;SDS011;45588;51.598;5.618;2023-04-29T02:10:11;94.97;;;62.03;;
59728;SDS011;45588;51.598;5.618;2023-04-29T02:12:37;64.57;;;30.05;;
59728;SDS011;45588;51.598;5.618;2023-04-29T02:15:02;92.80;;;59.17;;
59728;SDS011;45588;51.598;5.618;2023-04-29T02:17:27;66.00;;;29.55;;
59728;SDS011;45588;51.598;5.618;2023-04-29T02:19:52;68.43;;;28.00;;
59728;SDS011;45588;51.598;5.618;2023-04-29T02:22:19;65.72;;;29.08;;
59728;SDS011;45588;51.598;5.618;2023-04-29T02:24:44;62.60;;;28.73;;
59728;SDS011;45588;51.598;5.618;2023-04-29T02:27:10;98.15;;;63.22;;
59728;SDS011;45588;51.598;5.618;2023-04-29T02:29:35;78.28;;;33.20;;
59728;SDS011;45588;51.598;5.618;2023-04-29T02:32:01;81.75;;;33.45;;
59728;SDS011;45588;51.598;5.618;2023-04-29T02:34:26;96.95;;;41.13;;
59728;SDS011;45588;51.598;5.618;2023-04-29T02:36:51;76.10;;;30.27;;
59728;SDS011;45588;51.598;5.618;2023-04-29T02:39:17;74.60;;;30.33;;
59728;SDS011;45588;51.598;5.618;2023-04-29T02:41:44;76.93;;;29.70;;
59728;SDS011;45588;51.598;5.618;2023-04-29T02:44:12;80.38;;;34.78;;
59728;SDS011;45588;51.598;5.618;2023-04-29T02:46:38;75.07;;;32.75;;
59728;SDS011;45588;51.598;5.618;2023-04-29T02:49:05;92.30;;;32.80;;
59728;SDS011;45588;51.598;5.618;2023-04-29T02:51:31;82.07;;;29.20;;
59728;SDS011;45588;51.598;5.618;2023-04-29T02:53:56;124.80;;;75.47;;
59728;SDS011;45588;51.598;5.618;2023-04-29T02:56:22;89.05;;;33.50;;
59728;SDS011;45588;51.598;5.618;2023-04-29T02:58:47;80.20;;;32.97;;
59728;SDS011;45588;51.598;5.618;2023-04-29T03:01:13;80.03;;;33.55;;
59728;SDS011;45588;51.598;5.618;2023-04-29T03:03:38;80.30;;;31.90;;
59728;SDS011;45588;51.598;5.618;2023-04-29T03:06:04;92.03;;;37.60;;
59728;SDS011;45588;51.598;5.618;2023-04-29T03:08:29;82.95;;;30.25;;
59728;SDS011;45588;51.598;5.618;2023-04-29T03:10:54;94.72;;;39.63;;
59728;SDS011;45588;51.598;5.618;2023-04-29T03:13:19;84.75;;;31.80;;
59728;SDS011;45588;51.598;5.618;2023-04-29T03:15:45;116.18;;;68.55;;
59728;SDS011;45588;51.598;5.618;2023-04-29T03:18:10;95.72;;;35.20;;
59728;SDS011;45588;51.598;5.618;2023-04-29T03:20:35;80.00;;;33.80;;
59728;SDS011;45588;51.598;5.618;2023-04-29T03:23:00;71.53;;;27.73;;
59728;SDS011;45588;51.598;5.618;2023-04-29T03:25:26;71.05;;;29.30;;
59728;SDS011;45588;51.598;5.618;2023-04-29T03:27:52;77.78;;;30.77;;
59728;SDS011;45588;51.598;5.618;2023-04-29T03:30:17;83.97;;;32.33;;
59728;SDS011;45588;51.598;5.618;2023-04-29T03:32:42;66.53;;;29.70;;
59728;SDS011;45588;51.598;5.618;2023-04-29T03:35:08;87.97;;;33.72;;
59728;SDS011;45588;51.598;5.618;2023-04-29T03:37:35;64.65;;;27.52;;
59728;SDS011;45588;51.598;5.618;2023-04-29T03:40:00;74.70;;;29.50;;
59728;SDS011;45588;51.598;5.618;2023-04-29T03:42:25;110.67;;;67.37;;
59728;SDS011;45588;51.598;5.618;2023-04-29T03:44:51;80.07;;;35.78;;
59728;SDS011;45588;51.598;5.618;2023-04-29T03:47:16;78.80;;;31.80;;
59728;SDS011;45588;51.598;5.618;2023-04-29T03:49:41;117.75;;;70.60;;
59728;SDS011;45588;51.598;5.618;2023-04-29T03:52:06;82.78;;;32.97;;
59728;SDS011;45588;51.598;5.618;2023-04-29T03:54:31;79.80;;;31.10;;
59728;SDS011;45588;51.598;5.618;2023-04-29T03:56:57;80.35;;;32.13;;
59728;SDS011;45588;51.598;5.618;2023-04-29T03:59:22;116.90;;;73.10;;
59728;SDS011;45588;51.598;5.618;2023-04-29T04:01:48;67.93;;;30.75;;
59728;SDS011;45588;51.598;5.618;2023-04-29T04:04:13;78.70;;;30.07;;
59728;SDS011;45588;51.598;5.618;2023-04-29T04:06:38;74.18;;;30.48;;
59728;SDS011;45588;51.598;5.618;2023-04-29T04:09:03;75.43;;;30.13;;
59728;SDS011;45588;51.598;5.618;2023-04-29T04:11:28;74.38;;;29.98;;
59728;SDS011;45588;51.598;5.618;2023-04-29T04:13:53;75.55;;;31.55;;
59728;SDS011;45588;51.598;5.618;2023-04-29T04:16:21;71.35;;;30.92;;
59728;SDS011;45588;51.598;5.618;2023-04-29T04:18:46;83.55;;;32.22;;
59728;SDS011;45588;51.598;5.618;2023-04-29T04:21:12;81.47;;;33.87;;
59728;SDS011;45588;51.598;5.618;2023-04-29T04:23:37;105.07;;;62.92;;
59728;SDS011;45588;51.598;5.618;2023-04-29T04:26:05;94.22;;;62.20;;
59728;SDS011;45588;51.598;5.618;2023-04-29T04:28:31;68.40;;;27.48;;
59728;SDS011;45588;51.598;5.618;2023-04-29T04:30:56;64.93;;;28.63;;
59728;SDS011;45588;51.598;5.618;2023-04-29T04:33:21;64.03;;;27.38;;
59728;SDS011;45588;51.598;5.618;2023-04-29T04:35:46;68.30;;;26.60;;
59728;SDS011;45588;51.598;5.618;2023-04-29T04:38:12;59.55;;;26.10;;
59728;SDS011;45588;51.598;5.618;2023-04-29T04:40:39;69.05;;;29.13;;
59728;SDS011;45588;51.598;5.618;2023-04-29T04:43:05;55.83;;;25.95;;
59728;SDS011;45588;51.598;5.618;2023-04-29T04:45:30;55.40;;;26.58;;
59728;SDS011;45588;51.598;5.618;2023-04-29T04:47:55;85.43;;;55.00;;
59728;SDS011;45588;51.598;5.618;2023-04-29T04:50:21;65.03;;;28.15;;
59728;SDS011;45588;51.598;5.618;2023-04-29T04:52:46;81.65;;;53.67;;
59728;SDS011;45588;51.598;5.618;2023-04-29T04:55:11;61.20;;;25.03;;
59728;SDS011;45588;51.598;5.618;2023-04-29T04:57:36;61.70;;;25.48;;
59728;SDS011;45588;51.598;5.618;2023-04-29T05:00:01;66.32;;;26.38;;
59728;SDS011;45588;51.598;5.618;2023-04-29T05:02:28;57.05;;;25.45;;
59728;SDS011;45588;51.598;5.618;2023-04-29T05:04:53;59.88;;;25.25;;
59728;SDS011;45588;51.598;5.618;2023-04-29T05:07:18;77.28;;;52.60;;
59728;SDS011;45588;51.598;5.618;2023-04-29T05:09:43;78.28;;;53.45;;
59728;SDS011;45588;51.598;5.618;2023-04-29T05:12:09;79.25;;;52.20;;
59728;SDS011;45588;51.598;5.618;2023-04-29T05:14:34;76.85;;;51.30;;
59728;SDS011;45588;51.598;5.618;2023-04-29T05:16:59;57.20;;;24.73;;
59728;SDS011;45588;51.598;5.618;2023-04-29T05:19:24;57.00;;;25.05;;
59728;SDS011;45588;51.598;5.618;2023-04-29T05:21:50;56.20;;;25.83;;
59728;SDS011;45588;51.598;5.618;2023-04-29T05:24:16;61.65;;;26.48;;
59728;SDS011;45588;51.598;5.618;2023-04-29T05:26:41;52.72;;;25.52;;
59728;SDS011;45588;51.598;5.618;2023-04-29T05:29:08;52.17;;;24.58;;
59728;SDS011;45588;51.598;5.618;2023-04-29T05:31:33;46.22;;;23.23;;
59728;SDS011;45588;51.598;5.618;2023-04-29T05:33:58;70.17;;;50.53;;
59728;SDS011;45588;51.598;5.618;2023-04-29T05:36:23;53.45;;;24.27;;
59728;SDS011;45588;51.598;5.618;2023-04-29T05:38:49;49.33;;;25.20;;
59728;SDS011;45588;51.598;5.618;2023-04-29T05:41:14;52.38;;;25.95;;
59728;SDS011;45588;51.598;5.618;2023-04-29T05:43:39;58.03;;;24.33;;
59728;SDS011;45588;51.598;5.618;2023-04-29T05:46:04;55.28;;;23.10;;
59728;SDS011;45588;51.598;5.618;2023-04-29T05:48:30;49.70;;;24.38;;
59728;SDS011;45588;51.598;5.618;2023-04-29T05:50:55;46.65;;;22.98;;
59728;SDS011;45588;51.598;5.618;2023-04-29T05:53:20;53.65;;;24.40;;
59728;SDS011;45588;51.598;5.618;2023-04-29T05:55:45;62.88;;;26.13;;
59728;SDS011;45588;51.598;5.618;2023-04-29T05:58:11;69.80;;;48.25;;
59728;SDS011;45588;51.598;5.618;2023-04-29T06:00:36;46.28;;;24.55;;
59728;SDS011;45588;51.598;5.618;2023-04-29T06:03:01;53.40;;;24.57;;
59728;SDS011;45588;51.598;5.618;2023-04-29T06:05:27;42.35;;;21.48;;
59728;SDS011;45588;51.598;5.618;2023-04-29T06:07:52;64.97;;;46.05;;
59728;SDS011;45588;51.598;5.618;2023-04-29T06:10:17;48.80;;;23.27;;
59728;SDS011;45588;51.598;5.618;2023-04-29T06:12:43;41.17;;;22.60;;
59728;SDS011;45588;51.598;5.618;2023-04-29T06:15:08;46.00;;;23.40;;
59728;SDS011;45588;51.598;5.618;2023-04-29T06:17:33;42.65;;;22.90;;
59728;SDS011;45588;51.598;5.618;2023-04-29T06:19:59;62.17;;;44.97;;
59728;SDS011;45588;51.598;5.618;2023-04-29T06:22:24;38.92;;;21.23;;
59728;SDS011;45588;51.598;5.618;2023-04-29T06:24:51;44.75;;;22.48;;
59728;SDS011;45588;51.598;5.618;2023-04-29T06:27:17;52.60;;;25.85;;
59728;SDS011;45588;51.598;5.618;2023-04-29T06:29:42;47.83;;;23.75;;
59728;SDS011;45588;51.598;5.618;2023-04-29T06:32:07;49.47;;;23.13;;
59728;SDS011;45588;51.598;5.618;2023-04-29T06:34:32;59.00;;;43.80;;
59728;SDS011;45588;51.598;5.618;2023-04-29T06:36:58;61.75;;;46.30;;
59728;SDS011;45588;51.598;5.618;2023-04-29T06:39:23;46.20;;;22.00;;
59728;SDS011;45588;51.598;5.618;2023-04-29T06:41:48;43.85;;;23.35;;
59728;SDS011;45588;51.598;5.618;2023-04-29T06:44:13;44.58;;;22.00;;
59728;SDS011;45588;51.598;5.618;2023-04-29T06:46:40;57.78;;;43.58;;
59728;SDS011;45588;51.598;5.618;2023-04-29T06:49:06;56.10;;;44.45;;
59728;SDS011;45588;51.598;5.618;2023-04-29T06:51:32;48.97;;;26.27;;
59728;SDS011;45588;51.598;5.618;2023-04-29T06:53:57;46.17;;;23.98;;
59728;SDS011;45588;51.598;5.618;2023-04-29T06:56:22;53.63;;;42.43;;
59728;SDS011;45588;51.598;5.618;2023-04-29T06:58:47;44.58;;;23.20;;
59728;SDS011;45588;51.598;5.618;2023-04-29T07:01:13;41.80;;;20.98;;
59728;SDS011;45588;51.598;5.618;2023-04-29T07:03:38;47.40;;;23.33;;
59728;SDS011;45588;51.598;5.618;2023-04-29T07:06:03;46.30;;;37.57;;
59728;SDS011;45588;51.598;5.618;2023-04-29T07:08:28;47.40;;;34.13;;
59728;SDS011;45588;51.598;5.618;2023-04-29T07:10:54;37.30;;;19.27;;
59728;SDS011;45588;51.598;5.618;2023-04-29T07:13:20;40.15;;;19.83;;
59728;SDS011;45588;51.598;5.618;2023-04-29T07:15:45;38.30;;;20.63;;
59728;SDS011;45588;51.598;5.618;2023-04-29T07:18:11;42.35;;;35.65;;
59728;SDS011;45588;51.598;5.618;2023-04-29T07:20:36;41.33;;;29.23;;
59728;SDS011;45588;51.598;5.618;2023-04-29T07:23:01;38.70;;;20.67;;
59728;SDS011;45588;51.598;5.618;2023-04-29T07:25:26;42.05;;;35.65;;
59728;SDS011;45588;51.598;5.618;2023-04-29T07:27:53;43.22;;;34.58;;
59728;SDS011;45588;51.598;5.618;2023-04-29T07:30:19;38.58;;;28.55;;
59728;SDS011;45588;51.598;5.618;2023-04-29T07:32:44;37.47;;;21.73;;
59728;SDS011;45588;51.598;5.618;2023-04-29T07:35:10;41.40;;;36.07;;
59728;SDS011;45588;51.598;5.618;2023-04-29T07:37:35;40.07;;;32.57;;
59728;SDS011;45588;51.598;5.618;2023-04-29T07:40:00;35.20;;;18.60;;
59728;SDS011;45588;51.598;5.618;2023-04-29T07:42:25;40.42;;;23.05;;
59728;SDS011;45588;51.598;5.618;2023-04-29T07:44:50;44.23;;;36.87;;
59728;SDS011;45588;51.598;5.618;2023-04-29T07:47:16;33.35;;;18.98;;
59728;SDS011;45588;51.598;5.618;2023-04-29T07:49:41;32.75;;;20.40;;
59728;SDS011;45588;51.598;5.618;2023-04-29T07:52:06;34.53;;;18.65;;
59728;SDS011;45588;51.598;5.618;2023-04-29T07:54:34;44.17;;;36.50;;
59728;SDS011;45588;51.598;5.618;2023-04-29T07:56:59;42.63;;;20.60;;
59728;SDS011;45588;51.598;5.618;2023-04-29T07:59:25;42.00;;;35.72;;
59728;SDS011;45588;51.598;5.618;2023-04-29T08:01:50;35.72;;;19.92;;
59728;SDS011;45588;51.598;5.618;2023-04-29T08:04:16;32.00;;;18.95;;
59728;SDS011;45588;51.598;5.618;2023-04-29T08:06:41;35.93;;;18.73;;
59728;SDS011;45588;51.598;5.618;2023-04-29T08:09:07;35.75;;;19.50;;
59728;SDS011;45588;51.598;5.618;2023-04-29T08:11:32;32.58;;;19.02;;
59728;SDS011;45588;51.598;5.618;2023-04-29T08:13:57;38.33;;;31.63;;
59728;SDS011;45588;51.598;5.618;2023-04-29T08:16:24;36.90;;;21.73;;
59728;SDS011;45588;51.598;5.618;2023-04-29T08:18:50;27.67;;;16.55;;
59728;SDS011;45588;51.598;5.618;2023-04-29T08:21:15;35.80;;;30.90;;
59728;SDS011;45588;51.598;5.618;2023-04-29T08:23:40;28.25;;;19.25;;
59728;SDS011;45588;51.598;5.618;2023-04-29T08:26:05;35.10;;;20.37;;
59728;SDS011;45588;51.598;5.618;2023-04-29T08:28:31;34.58;;;19.17;;
59728;SDS011;45588;51.598;5.618;2023-04-29T08:30:56;38.13;;;29.80;;
59728;SDS011;45588;51.598;5.618;2023-04-29T08:33:21;26.90;;;17.38;;
59728;SDS011;45588;51.598;5.618;2023-04-29T08:35:47;34.37;;;28.83;;
59728;SDS011;45588;51.598;5.618;2023-04-29T08:38:12;31.30;;;26.90;;
59728;SDS011;45588;51.598;5.618;2023-04-29T08:40:41;30.83;;;19.75;;
59728;SDS011;45588;51.598;5.618;2023-04-29T08:43:06;35.67;;;16.73;;
59728;SDS011;45588;51.598;5.618;2023-04-29T08:45:33;28.65;;;16.73;;
59728;SDS011;45588;51.598;5.618;2023-04-29T08:47:59;27.95;;;17.27;;
59728;SDS011;45588;51.598;5.618;2023-04-29T08:50:25;35.60;;;28.23;;
59728;SDS011;45588;51.598;5.618;2023-04-29T08:52:51;31.67;;;27.92;;
59728;SDS011;45588;51.598;5.618;2023-04-29T08:55:17;32.60;;;25.98;;
59728;SDS011;45588;51.598;5.618;2023-04-29T08:57:42;30.13;;;15.98;;
59728;SDS011;45588;51.598;5.618;2023-04-29T09:00:08;36.75;;;26.48;;
59728;SDS011;45588;51.598;5.618;2023-04-29T09:02:36;30.73;;;26.67;;
59728;SDS011;45588;51.598;5.618;2023-04-29T09:05:09;30.13;;;18.38;;
59728;SDS011;45588;51.598;5.618;2023-04-29T09:07:35;27.73;;;15.73;;
59728;SDS011;45588;51.598;5.618;2023-04-29T09:10:00;28.38;;;24.73;;
59728;SDS011;45588;51.598;5.618;2023-04-29T09:12:26;30.23;;;25.42;;
59728;SDS011;45588;51.598;5.618;2023-04-29T09:14:54;29.40;;;14.65;;
59728;SDS011;45588;51.598;5.618;2023-04-29T09:17:21;31.52;;;27.20;;
59728;SDS011;45588;51.598;5.618;2023-04-29T09:20:01;26.40;;;17.00;;
59728;SDS011;45588;51.598;5.618;2023-04-29T09:22:46;29.15;;;22.85;;
59728;SDS011;45588;51.598;5.618;2023-04-29T09:25:12;29.25;;;23.42;;
59728;SDS011;45588;51.598;5.618;2023-04-29T09:27:37;30.17;;;23.73;;
59728;SDS011;45588;51.598;5.618;2023-04-29T09:30:02;27.15;;;21.48;;
59728;SDS011;45588;51.598;5.618;2023-04-29T09:32:28;32.97;;;19.95;;
59728;SDS011;45588;51.598;5.618;2023-04-29T09:34:53;27.07;;;24.17;;
59728;SDS011;45588;51.598;5.618;2023-04-29T09:37:25;23.33;;;14.75;;
59728;SDS011;45588;51.598;5.618;2023-04-29T09:39:52;26.05;;;23.23;;
59728;SDS011;45588;51.598;5.618;2023-04-29T09:42:17;27.13;;;23.02;;
59728;SDS011;45588;51.598;5.618;2023-04-29T09:44:42;25.83;;;18.92;;
59728;SDS011;45588;51.598;5.618;2023-04-29T09:47:08;25.75;;;22.40;;
59728;SDS011;45588;51.598;5.618;2023-04-29T09:49:35;24.70;;;22.13;;
59728;SDS011;45588;51.598;5.618;2023-04-29T09:52:03;27.25;;;21.55;;
59728;SDS011;45588;51.598;5.618;2023-04-29T09:54:29;26.38;;;21.60;;
59728;SDS011;45588;51.598;5.618;2023-04-29T09:56:55;21.13;;;13.13;;
59728;SDS011;45588;51.598;5.618;2023-04-29T09:59:21;23.15;;;19.45;;
59728;SDS011;45588;51.598;5.618;2023-04-29T10:01:56;26.02;;;22.15;;
59728;SDS011;45588;51.598;5.618;2023-04-29T10:04:22;21.13;;;12.63;;
59728;SDS011;45588;51.598;5.618;2023-04-29T10:06:48;23.27;;;19.85;;
59728;SDS011;45588;51.598;5.618;2023-04-29T10:09:14;22.27;;;18.15;;
59728;SDS011;45588;51.598;5.618;2023-04-29T10:11:45;23.15;;;18.42;;
59728;SDS011;45588;51.598;5.618;2023-04-29T10:14:20;21.55;;;18.33;;
59728;SDS011;45588;51.598;5.618;2023-04-29T10:16:51;21.00;;;12.95;;
59728;SDS011;45588;51.598;5.618;2023-04-29T10:19:32;22.67;;;19.38;;
59728;SDS011;45588;51.598;5.618;2023-04-29T10:21:59;20.98;;;17.95;;
59728;SDS011;45588;51.598;5.618;2023-04-29T10:24:24;17.42;;;15.57;;
59728;SDS011;45588;51.598;5.618;2023-04-29T10:26:51;19.27;;;15.98;;
59728;SDS011;45588;51.598;5.618;2023-04-29T10:29:17;20.35;;;17.35;;
59728;SDS011;45588;51.598;5.618;2023-04-29T10:31:43;20.83;;;16.95;;
59728;SDS011;45588;51.598;5.618;2023-04-29T10:34:08;19.60;;;16.95;;
59728;SDS011;45588;51.598;5.618;2023-04-29T10:36:34;19.98;;;15.95;;
59728;SDS011;45588;51.598;5.618;2023-04-29T10:39:02;19.17;;;15.10;;
59728;SDS011;45588;51.598;5.618;2023-04-29T10:41:41;20.35;;;18.15;;
59728;SDS011;45588;51.598;5.618;2023-04-29T10:44:08;16.48;;;10.63;;
59728;SDS011;45588;51.598;5.618;2023-04-29T10:46:34;17.25;;;14.52;;
59728;SDS011;45588;51.598;5.618;2023-04-29T10:49:00;20.50;;;15.67;;
59728;SDS011;45588;51.598;5.618;2023-04-29T10:51:27;18.38;;;15.35;;
59728;SDS011;45588;51.598;5.618;2023-04-29T10:56:49;18.20;;;15.23;;
59728;SDS011;45588;51.598;5.618;2023-04-29T10:59:15;19.25;;;17.23;;
59728;SDS011;45588;51.598;5.618;2023-04-29T11:01:51;18.45;;;15.43;;
59728;SDS011;45588;51.598;5.618;2023-04-29T11:04:17;14.63;;;10.75;;
59728;SDS011;45588;51.598;5.618;2023-04-29T11:06:44;15.65;;;10.23;;
59728;SDS011;45588;51.598;5.618;2023-04-29T11:09:10;17.50;;;15.68;;
59728;SDS011;45588;51.598;5.618;2023-04-29T11:14:25;19.55;;;17.45;;
59728;SDS011;45588;51.598;5.618;2023-04-29T11:16:52;17.08;;;15.30;;
59728;SDS011;45588;51.598;5.618;2023-04-29T11:19:17;17.08;;;11.57;;
59728;SDS011;45588;51.598;5.618;2023-04-29T11:21:43;21.33;;;16.40;;
59728;SDS011;45588;51.598;5.618;2023-04-29T11:24:08;18.00;;;15.02;;
59728;SDS011;45588;51.598;5.618;2023-04-29T11:26:34;18.25;;;14.65;;
59728;SDS011;45588;51.598;5.618;2023-04-29T11:28:59;17.08;;;15.25;;
59728;SDS011;45588;51.598;5.618;2023-04-29T11:31:25;17.13;;;15.02;;
59728;SDS011;45588;51.598;5.618;2023-04-29T11:33:52;20.00;;;14.07;;
59728;SDS011;45588;51.598;5.618;2023-04-29T11:36:17;14.77;;;13.27;;
59728;SDS011;45588;51.598;5.618;2023-04-29T11:38:42;16.40;;;13.13;;
59728;SDS011;45588;51.598;5.618;2023-04-29T11:41:09;15.18;;;13.68;;
59728;SDS011;45588;51.598;5.618;2023-04-29T11:43:35;16.95;;;13.68;;
59728;SDS011;45588;51.598;5.618;2023-04-29T11:46:00;15.27;;;12.02;;
59728;SDS011;45588;51.598;5.618;2023-04-29T11:48:25;14.93;;;13.40;;
59728;SDS011;45588;51.598;5.618;2023-04-29T11:50:51;16.13;;;13.77;;
59728;SDS011;45588;51.598;5.618;2023-04-29T11:53:20;13.68;;;12.25;;
59728;SDS011;45588;51.598;5.618;2023-04-29T11:55:46;15.15;;;11.55;;
59728;SDS011;45588;51.598;5.618;2023-04-29T11:58:12;13.10;;;11.70;;
59728;SDS011;45588;51.598;5.618;2023-04-29T12:00:38;11.30;;;10.07;;
59728;SDS011;45588;51.598;5.618;2023-04-29T12:03:07;12.50;;;11.20;;
59728;SDS011;45588;51.598;5.618;2023-04-29T12:05:36;11.80;;;10.65;;
59728;SDS011;45588;51.598;5.618;2023-04-29T12:08:02;13.87;;;10.47;;
59728;SDS011;45588;51.598;5.618;2023-04-29T12:10:27;15.27;;;13.32;;
59728;SDS011;45588;51.598;5.618;2023-04-29T12:12:54;12.13;;;10.93;;
59728;SDS011;45588;51.598;5.618;2023-04-29T12:15:19;11.35;;;10.15;;
59728;SDS011;45588;51.598;5.618;2023-04-29T12:17:44;14.80;;;11.93;;
59728;SDS011;45588;51.598;5.618;2023-04-29T12:20:11;13.82;;;12.40;;
59728;SDS011;45588;51.598;5.618;2023-04-29T12:22:36;12.82;;;11.57;;
59728;SDS011;45588;51.598;5.618;2023-04-29T12:25:02;12.57;;;11.27;;
59728;SDS011;45588;51.598;5.618;2023-04-29T12:27:28;13.07;;;10.10;;
59728;SDS011;45588;51.598;5.618;2023-04-29T12:29:53;13.02;;;10.32;;
59728;SDS011;45588;51.598;5.618;2023-04-29T12:32:22;12.20;;;10.57;;
59728;SDS011;45588;51.598;5.618;2023-04-29T12:34:49;14.10;;;11.52;;
59728;SDS011;45588;51.598;5.618;2023-04-29T12:37:14;12.30;;;11.10;;
59728;SDS011;45588;51.598;5.618;2023-04-29T12:39:40;13.63;;;11.35;;
59728;SDS011;45588;51.598;5.618;2023-04-29T12:42:05;12.00;;;10.05;;
59728;SDS011;45588;51.598;5.618;2023-04-29T12:44:36;10.67;;;9.67;;
59728;SDS011;45588;51.598;5.618;2023-04-29T12:49:26;11.90;;;10.70;;
59728;SDS011;45588;51.598;5.618;2023-04-29T12:51:52;13.57;;;11.20;;
59728;SDS011;45588;51.598;5.618;2023-04-29T12:54:17;12.43;;;11.02;;
59728;SDS011;45588;51.598;5.618;2023-04-29T12:56:42;11.85;;;10.65;;
59728;SDS011;45588;51.598;5.618;2023-04-29T12:59:08;10.95;;;9.85;;
59728;SDS011;45588;51.598;5.618;2023-04-29T13:01:34;12.70;;;10.70;;
59728;SDS011;45588;51.598;5.618;2023-04-29T13:03:59;11.27;;;9.32;;
59728;SDS011;45588;51.598;5.618;2023-04-29T13:06:24;13.60;;;9.17;;
59728;SDS011;45588;51.598;5.618;2023-04-29T13:08:49;12.33;;;10.93;;
59728;SDS011;45588;51.598;5.618;2023-04-29T13:11:18;12.70;;;11.32;;
59728;SDS011;45588;51.598;5.618;2023-04-29T13:13:43;11.40;;;10.30;;
59728;SDS011;45588;51.598;5.618;2023-04-29T13:16:09;12.20;;;10.90;;
59728;SDS011;45588;51.598;5.618;2023-04-29T13:18:34;13.25;;;10.10;;
59728;SDS011;45588;51.598;5.618;2023-04-29T13:20:59;17.38;;;10.73;;
59728;SDS011;45588;51.598;5.618;2023-04-29T13:23:25;12.13;;;10.65;;
59728;SDS011;45588;51.598;5.618;2023-04-29T13:25:50;10.27;;;9.25;;
59728;SDS011;45588;51.598;5.618;2023-04-29T13:28:15;9.35;;;8.45;;
59728;SDS011;45588;51.598;5.618;2023-04-29T13:30:41;10.48;;;8.13;;
59728;SDS011;45588;51.598;5.618;2023-04-29T13:33:06;10.03;;;7.60;;
59728;SDS011;45588;51.598;5.618;2023-04-29T13:35:31;10.97;;;8.73;;
59728;SDS011;45588;51.598;5.618;2023-04-29T13:37:59;9.50;;;8.52;;
59728;SDS011;45588;51.598;5.618;2023-04-29T13:40:25;9.48;;;8.57;;
59728;SDS011;45588;51.598;5.618;2023-04-29T13:42:50;9.77;;;8.53;;
59728;SDS011;45588;51.598;5.618;2023-04-29T13:45:15;10.75;;;8.52;;
59728;SDS011;45588;51.598;5.618;2023-04-29T13:47:41;9.43;;;8.43;;
59728;SDS011;45588;51.598;5.618;2023-04-29T13:50:06;11.03;;;8.40;;
59728;SDS011;45588;51.598;5.618;2023-04-29T13:52:31;8.32;;;7.53;;
59728;SDS011;45588;51.598;5.618;2023-04-29T13:54:56;9.32;;;8.43;;
59728;SDS011;45588;51.598;5.618;2023-04-29T13:57:21;8.73;;;7.60;;
59728;SDS011;45588;51.598;5.618;2023-04-29T13:59:47;10.93;;;7.97;;
59728;SDS011;45588;51.598;5.618;2023-04-29T14:02:12;9.27;;;8.38;;
59728;SDS011;45588;51.598;5.618;2023-04-29T14:04:38;9.55;;;8.32;;
59728;SDS011;45588;51.598;5.618;2023-04-29T14:07:03;8.77;;;7.90;;
59728;SDS011;45588;51.598;5.618;2023-04-29T14:09:28;9.87;;;8.70;;
59728;SDS011;45588;51.598;5.618;2023-04-29T14:11:53;9.90;;;8.10;;
59728;SDS011;45588;51.598;5.618;2023-04-29T14:14:19;12.07;;;10.18;;
59728;SDS011;45588;51.598;5.618;2023-04-29T14:16:44;10.07;;;8.65;;
59728;SDS011;45588;51.598;5.618;2023-04-29T14:19:09;15.25;;;8.68;;
59728;SDS011;45588;51.598;5.618;2023-04-29T14:21:35;10.05;;;9.05;;
59728;SDS011;45588;51.598;5.618;2023-04-29T14:24:01;11.13;;;9.35;;
59728;SDS011;45588;51.598;5.618;2023-04-29T14:26:27;11.10;;;9.45;;
59728;SDS011;45588;51.598;5.618;2023-04-29T14:28:52;10.57;;;8.70;;
59728;SDS011;45588;51.598;5.618;2023-04-29T14:31:22;10.32;;;8.77;;
59728;SDS011;45588;51.598;5.618;2023-04-29T14:33:47;11.23;;;10.13;;
59728;SDS011;45588;51.598;5.618;2023-04-29T14:36:14;10.10;;;9.10;;